Airport View

Enter AWOS ICAO identifier for current METAR.

ex. KFNL

KEKS 211155Z AUTO 35007G12KT 10SM OVC009 07/06 A3029 RMK AO2

21 Aug 2018 12:16

Frequency: 119.85

Phone: 406-682-3835

Other Area AWOS: KBZN - KDLN - KWYS - KLVM

TAF KEKS 211133Z 2112/2212 35011KT P6SM VCFG BKN008 OVC010 FM211800 02011KT P6SM FEW040 SCT090 FM220900 VRB05KT P6SM VCFG FEW009 SCT015